sensor_id;sensor_type;location;lat;lon;timestamp;temperature;humidity
1880;DHT22;49285;49.002;8.390;2023-03-01T00:01:08;4.60;81.80
1880;DHT22;49285;49.002;8.390;2023-03-01T00:03:34;4.60;81.80
1880;DHT22;49285;49.002;8.390;2023-03-01T00:06:01;4.60;81.90
1880;DHT22;49285;49.002;8.390;2023-03-01T00:08:27;4.50;81.90
1880;DHT22;49285;49.002;8.390;2023-03-01T00:13:30;4.50;82.00
1880;DHT22;49285;49.002;8.390;2023-03-01T00:15:56;4.50;82.10
1880;DHT22;49285;49.002;8.390;2023-03-01T00:18:21;4.40;82.10
1880;DHT22;49285;49.002;8.390;2023-03-01T00:20:54;4.40;82.20
1880;DHT22;49285;49.002;8.390;2023-03-01T00:23:22;4.50;82.40
1880;DHT22;49285;49.002;8.390;2023-03-01T00:25:48;4.40;82.50
1880;DHT22;49285;49.002;8.390;2023-03-01T00:28:14;4.40;82.70
1880;DHT22;49285;49.002;8.390;2023-03-01T00:30:40;4.40;82.70
1880;DHT22;49285;49.002;8.390;2023-03-01T00:33:05;4.40;82.90
1880;DHT22;49285;49.002;8.390;2023-03-01T00:35:32;4.30;83.00
1880;DHT22;49285;49.002;8.390;2023-03-01T00:37:58;4.40;83.10
1880;DHT22;49285;49.002;8.390;2023-03-01T00:40:24;4.40;83.30
1880;DHT22;49285;49.002;8.390;2023-03-01T00:42:50;4.30;83.30
1880;DHT22;49285;49.002;8.390;2023-03-01T00:45:16;4.30;84.20
1880;DHT22;49285;49.002;8.390;2023-03-01T00:47:42;4.30;83.60
1880;DHT22;49285;49.002;8.390;2023-03-01T00:50:09;4.30;83.90
1880;DHT22;49285;49.002;8.390;2023-03-01T00:52:35;4.30;84.00
1880;DHT22;49285;49.002;8.390;2023-03-01T00:55:01;4.30;85.00
1880;DHT22;49285;49.002;8.390;2023-03-01T00:57:26;4.20;84.40
1880;DHT22;49285;49.002;8.390;2023-03-01T00:59:52;4.20;84.40
1880;DHT22;49285;49.002;8.390;2023-03-01T01:02:19;4.20;84.40
1880;DHT22;49285;49.002;8.390;2023-03-01T01:04:45;4.20;84.70
1880;DHT22;49285;49.002;8.390;2023-03-01T01:07:11;4.20;84.60
1880;DHT22;49285;49.002;8.390;2023-03-01T01:09:36;4.20;84.80
1880;DHT22;49285;49.002;8.390;2023-03-01T01:12:03;4.20;84.90
1880;DHT22;49285;49.002;8.390;2023-03-01T01:14:28;4.20;85.10
1880;DHT22;49285;49.002;8.390;2023-03-01T01:16:54;4.20;85.30
1880;DHT22;49285;49.002;8.390;2023-03-01T01:19:20;4.20;85.40
1880;DHT22;49285;49.002;8.390;2023-03-01T01:21:46;4.20;85.50
1880;DHT22;49285;49.002;8.390;2023-03-01T01:24:13;4.10;85.60
1880;DHT22;49285;49.002;8.390;2023-03-01T01:26:39;4.10;85.80
1880;DHT22;49285;49.002;8.390;2023-03-01T01:29:05;4.10;86.10
1880;DHT22;49285;49.002;8.390;2023-03-01T01:31:32;4.00;86.10
1880;DHT22;49285;49.002;8.390;2023-03-01T01:33:59;4.10;86.20
1880;DHT22;49285;49.002;8.390;2023-03-01T01:36:26;4.00;87.50
1880;DHT22;49285;49.002;8.390;2023-03-01T01:38:52;4.00;87.70
1880;DHT22;49285;49.002;8.390;2023-03-01T01:41:19;4.00;86.90
1880;DHT22;49285;49.002;8.390;2023-03-01T01:43:48;4.00;87.00
1880;DHT22;49285;49.002;8.390;2023-03-01T01:46:30;4.00;87.00
1880;DHT22;49285;49.002;8.390;2023-03-01T01:49:12;4.00;86.90
1880;DHT22;49285;49.002;8.390;2023-03-01T01:51:42;4.00;87.10
1880;DHT22;49285;49.002;8.390;2023-03-01T01:54:14;4.00;87.20
1880;DHT22;49285;49.002;8.390;2023-03-01T01:56:44;4.00;87.50
1880;DHT22;49285;49.002;8.390;2023-03-01T01:59:13;4.00;87.60
1880;DHT22;49285;49.002;8.390;2023-03-01T02:01:39;4.00;87.90
1880;DHT22;49285;49.002;8.390;2023-03-01T02:04:05;4.00;87.90
1880;DHT22;49285;49.002;8.390;2023-03-01T02:06:36;4.00;87.90
1880;DHT22;49285;49.002;8.390;2023-03-01T02:09:13;4.00;88.00
1880;DHT22;49285;49.002;8.390;2023-03-01T02:11:40;4.00;88.30
1880;DHT22;49285;49.002;8.390;2023-03-01T02:14:06;4.00;88.30
1880;DHT22;49285;49.002;8.390;2023-03-01T02:16:32;3.90;88.40
1880;DHT22;49285;49.002;8.390;2023-03-01T02:18:58;3.90;88.40
1880;DHT22;49285;49.002;8.390;2023-03-01T02:24:05;3.90;88.50
1880;DHT22;49285;49.002;8.390;2023-03-01T02:26:40;3.90;88.80
1880;DHT22;49285;49.002;8.390;2023-03-01T02:29:07;3.90;88.90
1880;DHT22;49285;49.002;8.390;2023-03-01T02:31:33;3.90;88.90
1880;DHT22;49285;49.002;8.390;2023-03-01T02:34:11;3.90;89.00
1880;DHT22;49285;49.002;8.390;2023-03-01T02:39:14;3.80;89.60
1880;DHT22;49285;49.002;8.390;2023-03-01T02:41:46;3.80;89.70
1880;DHT22;49285;49.002;8.390;2023-03-01T02:44:12;3.80;89.60
1880;DHT22;49285;49.002;8.390;2023-03-01T02:46:47;3.80;90.00
1880;DHT22;49285;49.002;8.390;2023-03-01T02:49:26;3.80;90.00
1880;DHT22;49285;49.002;8.390;2023-03-01T02:57:02;3.80;90.20
1880;DHT22;49285;49.002;8.390;2023-03-01T02:59:31;3.80;90.20
1880;DHT22;49285;49.002;8.390;2023-03-01T03:02:00;3.80;90.30
1880;DHT22;49285;49.002;8.390;2023-03-01T03:04:26;3.70;90.40
1880;DHT22;49285;49.002;8.390;2023-03-01T03:06:51;3.70;90.50
1880;DHT22;49285;49.002;8.390;2023-03-01T03:09:17;3.70;90.50
1880;DHT22;49285;49.002;8.390;2023-03-01T03:11:43;3.70;90.60
1880;DHT22;49285;49.002;8.390;2023-03-01T03:14:10;3.70;90.60
1880;DHT22;49285;49.002;8.390;2023-03-01T03:16:42;3.70;90.80
1880;DHT22;49285;49.002;8.390;2023-03-01T03:19:08;3.60;90.90
1880;DHT22;49285;49.002;8.390;2023-03-01T03:21:34;3.60;90.90
1880;DHT22;49285;49.002;8.390;2023-03-01T03:24:00;3.60;90.90
1880;DHT22;49285;49.002;8.390;2023-03-01T03:26:26;3.60;91.00
1880;DHT22;49285;49.002;8.390;2023-03-01T03:28:51;3.60;91.00
1880;DHT22;49285;49.002;8.390;2023-03-01T03:31:17;3.60;91.10
1880;DHT22;49285;49.002;8.390;2023-03-01T03:33:43;3.60;91.10
1880;DHT22;49285;49.002;8.390;2023-03-01T03:36:08;3.60;91.10
1880;DHT22;49285;49.002;8.390;2023-03-01T03:38:39;3.60;91.20
1880;DHT22;49285;49.002;8.390;2023-03-01T03:41:08;3.60;91.20
1880;DHT22;49285;49.002;8.390;2023-03-01T03:43:36;3.60;91.30
1880;DHT22;49285;49.002;8.390;2023-03-01T03:46:04;3.60;91.40
1880;DHT22;49285;49.002;8.390;2023-03-01T03:48:41;3.60;91.50
1880;DHT22;49285;49.002;8.390;2023-03-01T03:51:09;3.60;91.60
1880;DHT22;49285;49.002;8.390;2023-03-01T03:53:35;3.60;91.60
1880;DHT22;49285;49.002;8.390;2023-03-01T03:56:00;3.60;91.60
1880;DHT22;49285;49.002;8.390;2023-03-01T03:58:26;3.60;91.60
1880;DHT22;49285;49.002;8.390;2023-03-01T04:00:54;3.50;91.70
1880;DHT22;49285;49.002;8.390;2023-03-01T04:03:25;3.50;91.70
1880;DHT22;49285;49.002;8.390;2023-03-01T04:05:51;3.50;91.80
1880;DHT22;49285;49.002;8.390;2023-03-01T04:08:19;3.50;91.90
1880;DHT22;49285;49.002;8.390;2023-03-01T04:10:48;3.50;91.90
1880;DHT22;49285;49.002;8.390;2023-03-01T04:13:16;3.50;91.90
1880;DHT22;49285;49.002;8.390;2023-03-01T04:15:43;3.50;92.10
1880;DHT22;49285;49.002;8.390;2023-03-01T04:18:12;3.50;92.10
1880;DHT22;49285;49.002;8.390;2023-03-01T04:20:38;3.50;92.00
1880;DHT22;49285;49.002;8.390;2023-03-01T04:23:09;3.40;92.10
1880;DHT22;49285;49.002;8.390;2023-03-01T04:25:45;3.40;92.10
1880;DHT22;49285;49.002;8.390;2023-03-01T04:28:11;3.40;92.10
1880;DHT22;49285;49.002;8.390;2023-03-01T04:30:38;3.40;92.20
1880;DHT22;49285;49.002;8.390;2023-03-01T04:33:08;3.40;92.30
1880;DHT22;49285;49.002;8.390;2023-03-01T04:35:35;3.40;92.30
1880;DHT22;49285;49.002;8.390;2023-03-01T04:38:01;3.30;92.50
1880;DHT22;49285;49.002;8.390;2023-03-01T04:40:26;3.30;92.50
1880;DHT22;49285;49.002;8.390;2023-03-01T04:42:52;3.30;92.60
1880;DHT22;49285;49.002;8.390;2023-03-01T04:45:18;3.30;92.80
1880;DHT22;49285;49.002;8.390;2023-03-01T04:47:45;3.30;92.80
1880;DHT22;49285;49.002;8.390;2023-03-01T04:50:13;3.30;92.80
1880;DHT22;49285;49.002;8.390;2023-03-01T04:52:39;3.30;92.70
1880;DHT22;49285;49.002;8.390;2023-03-01T04:55:05;3.30;92.80
1880;DHT22;49285;49.002;8.390;2023-03-01T04:57:31;3.30;92.80
1880;DHT22;49285;49.002;8.390;2023-03-01T04:59:57;3.30;93.00
1880;DHT22;49285;49.002;8.390;2023-03-01T05:02:23;3.30;92.90
1880;DHT22;49285;49.002;8.390;2023-03-01T05:04:48;3.30;92.90
1880;DHT22;49285;49.002;8.390;2023-03-01T05:07:14;3.30;93.00
1880;DHT22;49285;49.002;8.390;2023-03-01T05:09:45;3.20;93.00
1880;DHT22;49285;49.002;8.390;2023-03-01T05:12:12;3.20;93.10
1880;DHT22;49285;49.002;8.390;2023-03-01T05:14:38;3.20;93.50
1880;DHT22;49285;49.002;8.390;2023-03-01T05:17:04;3.20;93.20
1880;DHT22;49285;49.002;8.390;2023-03-01T05:19:30;3.20;93.30
1880;DHT22;49285;49.002;8.390;2023-03-01T05:21:57;3.20;93.30
1880;DHT22;49285;49.002;8.390;2023-03-01T05:24:33;3.20;93.30
1880;DHT22;49285;49.002;8.390;2023-03-01T05:27:00;3.10;93.30
1880;DHT22;49285;49.002;8.390;2023-03-01T05:29:27;3.10;93.50
1880;DHT22;49285;49.002;8.390;2023-03-01T05:31:55;3.10;93.50
1880;DHT22;49285;49.002;8.390;2023-03-01T05:34:33;3.10;93.50
1880;DHT22;49285;49.002;8.390;2023-03-01T05:37:00;3.10;93.50
1880;DHT22;49285;49.002;8.390;2023-03-01T05:39:27;3.10;93.60
1880;DHT22;49285;49.002;8.390;2023-03-01T05:41:59;3.10;93.60
1880;DHT22;49285;49.002;8.390;2023-03-01T05:44:25;3.00;93.70
1880;DHT22;49285;49.002;8.390;2023-03-01T05:46:52;3.00;93.70
1880;DHT22;49285;49.002;8.390;2023-03-01T05:49:17;3.00;93.80
1880;DHT22;49285;49.002;8.390;2023-03-01T05:51:48;3.00;93.80
1880;DHT22;49285;49.002;8.390;2023-03-01T05:54:14;3.00;93.90
1880;DHT22;49285;49.002;8.390;2023-03-01T05:56:40;3.00;93.90
1880;DHT22;49285;49.002;8.390;2023-03-01T05:59:06;3.00;94.00
1880;DHT22;49285;49.002;8.390;2023-03-01T06:01:32;3.00;94.10
1880;DHT22;49285;49.002;8.390;2023-03-01T06:03:58;2.90;94.10
1880;DHT22;49285;49.002;8.390;2023-03-01T06:06:24;2.90;94.20
1880;DHT22;49285;49.002;8.390;2023-03-01T06:08:51;2.90;94.20
1880;DHT22;49285;49.002;8.390;2023-03-01T06:11:17;2.90;94.20
1880;DHT22;49285;49.002;8.390;2023-03-01T06:13:43;3.00;94.20
1880;DHT22;49285;49.002;8.390;2023-03-01T06:16:09;2.90;94.20
1880;DHT22;49285;49.002;8.390;2023-03-01T06:18:35;2.90;94.30
1880;DHT22;49285;49.002;8.390;2023-03-01T06:21:01;2.90;94.30
1880;DHT22;49285;49.002;8.390;2023-03-01T06:23:26;2.90;94.30
1880;DHT22;49285;49.002;8.390;2023-03-01T06:25:52;2.90;94.40
1880;DHT22;49285;49.002;8.390;2023-03-01T06:28:18;2.90;94.50
1880;DHT22;49285;49.002;8.390;2023-03-01T06:30:43;2.90;94.50
1880;DHT22;49285;49.002;8.390;2023-03-01T06:33:09;2.90;94.60
1880;DHT22;49285;49.002;8.390;2023-03-01T06:35:35;2.90;94.60
1880;DHT22;49285;49.002;8.390;2023-03-01T06:38:02;2.80;94.60
1880;DHT22;49285;49.002;8.390;2023-03-01T06:40:28;2.90;94.70
1880;DHT22;49285;49.002;8.390;2023-03-01T06:42:53;2.90;95.10
1880;DHT22;49285;49.002;8.390;2023-03-01T06:45:20;2.90;94.70
1880;DHT22;49285;49.002;8.390;2023-03-01T06:47:45;2.90;94.90
1880;DHT22;49285;49.002;8.390;2023-03-01T06:50:12;2.90;94.90
1880;DHT22;49285;49.002;8.390;2023-03-01T06:52:38;2.90;94.80
1880;DHT22;49285;49.002;8.390;2023-03-01T06:55:04;2.90;94.90
1880;DHT22;49285;49.002;8.390;2023-03-01T06:57:30;2.90;94.90
1880;DHT22;49285;49.002;8.390;2023-03-01T06:59:56;2.90;95.00
1880;DHT22;49285;49.002;8.390;2023-03-01T07:02:21;2.90;95.00
1880;DHT22;49285;49.002;8.390;2023-03-01T07:04:49;2.90;95.00
1880;DHT22;49285;49.002;8.390;2023-03-01T07:07:15;2.90;95.00
1880;DHT22;49285;49.002;8.390;2023-03-01T07:09:41;3.00;95.10
1880;DHT22;49285;49.002;8.390;2023-03-01T07:12:07;3.00;95.10
1880;DHT22;49285;49.002;8.390;2023-03-01T07:14:33;2.90;95.20
1880;DHT22;49285;49.002;8.390;2023-03-01T07:16:59;3.00;95.20
1880;DHT22;49285;49.002;8.390;2023-03-01T07:19:24;3.00;95.20
1880;DHT22;49285;49.002;8.390;2023-03-01T07:21:50;3.00;95.20
1880;DHT22;49285;49.002;8.390;2023-03-01T07:24:15;3.00;95.20
1880;DHT22;49285;49.002;8.390;2023-03-01T07:26:41;3.10;95.20
1880;DHT22;49285;49.002;8.390;2023-03-01T07:29:07;3.00;95.10
1880;DHT22;49285;49.002;8.390;2023-03-01T07:31:34;3.10;95.20
1880;DHT22;49285;49.002;8.390;2023-03-01T07:34:00;3.00;95.20
1880;DHT22;49285;49.002;8.390;2023-03-01T07:36:25;3.10;95.30
1880;DHT22;49285;49.002;8.390;2023-03-01T07:38:51;3.10;95.20
1880;DHT22;49285;49.002;8.390;2023-03-01T07:41:17;3.10;95.10
1880;DHT22;49285;49.002;8.390;2023-03-01T07:43:42;3.10;95.20
1880;DHT22;49285;49.002;8.390;2023-03-01T07:46:08;3.20;95.10
1880;DHT22;49285;49.002;8.390;2023-03-01T07:48:34;3.10;95.20
1880;DHT22;49285;49.002;8.390;2023-03-01T07:51:05;3.20;95.10
1880;DHT22;49285;49.002;8.390;2023-03-01T07:53:32;3.20;95.00
1880;DHT22;49285;49.002;8.390;2023-03-01T07:56:04;3.10;95.20
1880;DHT22;49285;49.002;8.390;2023-03-01T07:58:29;3.00;94.90
1880;DHT22;49285;49.002;8.390;2023-03-01T08:00:55;3.10;94.90
1880;DHT22;49285;49.002;8.390;2023-03-01T08:03:21;3.10;94.80
1880;DHT22;49285;49.002;8.390;2023-03-01T08:05:46;3.10;95.00
1880;DHT22;49285;49.002;8.390;2023-03-01T08:08:12;3.20;94.90
1880;DHT22;49285;49.002;8.390;2023-03-01T08:10:37;3.20;95.10
1880;DHT22;49285;49.002;8.390;2023-03-01T08:13:03;3.30;95.00
1880;DHT22;49285;49.002;8.390;2023-03-01T08:15:28;3.30;94.90
1880;DHT22;49285;49.002;8.390;2023-03-01T08:17:54;3.30;94.90
1880;DHT22;49285;49.002;8.390;2023-03-01T08:20:19;3.40;94.90
1880;DHT22;49285;49.002;8.390;2023-03-01T08:22:45;3.40;94.70
1880;DHT22;49285;49.002;8.390;2023-03-01T08:25:10;3.40;94.80
1880;DHT22;49285;49.002;8.390;2023-03-01T08:27:36;3.50;94.80
1880;DHT22;49285;49.002;8.390;2023-03-01T08:30:02;3.60;94.60
1880;DHT22;49285;49.002;8.390;2023-03-01T08:32:27;3.60;94.40
1880;DHT22;49285;49.002;8.390;2023-03-01T08:34:53;3.50;94.50
1880;DHT22;49285;49.002;8.390;2023-03-01T08:37:18;3.50;94.60
1880;DHT22;49285;49.002;8.390;2023-03-01T08:39:44;3.60;94.60
1880;DHT22;49285;49.002;8.390;2023-03-01T08:42:09;3.50;94.30
1880;DHT22;49285;49.002;8.390;2023-03-01T08:44:35;3.60;94.50
1880;DHT22;49285;49.002;8.390;2023-03-01T08:47:00;3.60;94.50
1880;DHT22;49285;49.002;8.390;2023-03-01T08:49:27;3.70;94.40
1880;DHT22;49285;49.002;8.390;2023-03-01T08:51:53;3.70;94.40
1880;DHT22;49285;49.002;8.390;2023-03-01T08:54:20;3.70;94.40
1880;DHT22;49285;49.002;8.390;2023-03-01T08:56:46;3.80;94.50
1880;DHT22;49285;49.002;8.390;2023-03-01T08:59:13;3.80;94.50
1880;DHT22;49285;49.002;8.390;2023-03-01T09:01:39;3.80;94.70
1880;DHT22;49285;49.002;8.390;2023-03-01T09:04:08;4.00;94.60
1880;DHT22;49285;49.002;8.390;2023-03-01T09:06:34;4.10;94.40
1880;DHT22;49285;49.002;8.390;2023-03-01T09:09:01;4.10;94.40
1880;DHT22;49285;49.002;8.390;2023-03-01T09:11:28;4.20;94.30
1880;DHT22;49285;49.002;8.390;2023-03-01T09:13:53;4.30;94.30
1880;DHT22;49285;49.002;8.390;2023-03-01T09:16:20;4.30;94.30
1880;DHT22;49285;49.002;8.390;2023-03-01T09:18:51;4.30;94.10
1880;DHT22;49285;49.002;8.390;2023-03-01T09:21:18;4.40;93.90
1880;DHT22;49285;49.002;8.390;2023-03-01T09:23:45;4.40;93.90
1880;DHT22;49285;49.002;8.390;2023-03-01T09:26:14;4.40;94.00
1880;DHT22;49285;49.002;8.390;2023-03-01T09:28:42;4.50;93.90
1880;DHT22;49285;49.002;8.390;2023-03-01T09:31:08;4.50;94.00
1880;DHT22;49285;49.002;8.390;2023-03-01T09:33:33;4.60;93.90
1880;DHT22;49285;49.002;8.390;2023-03-01T09:36:01;4.60;93.90
1880;DHT22;49285;49.002;8.390;2023-03-01T09:38:27;4.70;93.90
1880;DHT22;49285;49.002;8.390;2023-03-01T09:40:53;4.70;93.80
1880;DHT22;49285;49.002;8.390;2023-03-01T09:43:30;4.90;93.70
1880;DHT22;49285;49.002;8.390;2023-03-01T09:46:02;4.90;93.50
1880;DHT22;49285;49.002;8.390;2023-03-01T09:48:38;4.90;93.40
1880;DHT22;49285;49.002;8.390;2023-03-01T09:51:08;4.90;93.50
1880;DHT22;49285;49.002;8.390;2023-03-01T09:53:34;5.00;93.50
1880;DHT22;49285;49.002;8.390;2023-03-01T09:56:39;5.10;93.40
1880;DHT22;49285;49.002;8.390;2023-03-01T09:59:28;5.10;93.40
1880;DHT22;49285;49.002;8.390;2023-03-01T10:09:53;5.20;93.10
1880;DHT22;49285;49.002;8.390;2023-03-01T10:12:24;5.30;93.10
1880;DHT22;49285;49.002;8.390;2023-03-01T10:15:16;5.40;93.00
1880;DHT22;49285;49.002;8.390;2023-03-01T10:18:00;5.50;93.00
1880;DHT22;49285;49.002;8.390;2023-03-01T10:20:58;5.50;92.90
1880;DHT22;49285;49.002;8.390;2023-03-01T10:23:26;5.60;92.90
1880;DHT22;49285;49.002;8.390;2023-03-01T10:28:43;5.70;92.40
1880;DHT22;49285;49.002;8.390;2023-03-01T10:31:20;5.80;92.30
1880;DHT22;49285;49.002;8.390;2023-03-01T10:33:48;5.80;92.40
1880;DHT22;49285;49.002;8.390;2023-03-01T10:36:16;5.80;92.40
1880;DHT22;49285;49.002;8.390;2023-03-01T10:38:56;5.90;92.30
1880;DHT22;49285;49.002;8.390;2023-03-01T10:41:24;6.00;92.20
1880;DHT22;49285;49.002;8.390;2023-03-01T10:43:52;6.00;92.00
1880;DHT22;49285;49.002;8.390;2023-03-01T10:46:36;6.10;92.10
1880;DHT22;49285;49.002;8.390;2023-03-01T10:49:18;6.20;91.90
1880;DHT22;49285;49.002;8.390;2023-03-01T10:51:46;6.20;91.70
1880;DHT22;49285;49.002;8.390;2023-03-01T10:54:32;6.20;91.70
1880;DHT22;49285;49.002;8.390;2023-03-01T10:57:03;6.20;91.60
1880;DHT22;49285;49.002;8.390;2023-03-01T10:59:34;6.30;91.40
1880;DHT22;49285;49.002;8.390;2023-03-01T11:02:03;6.40;91.30
1880;DHT22;49285;49.002;8.390;2023-03-01T11:04:29;6.50;91.30
1880;DHT22;49285;49.002;8.390;2023-03-01T11:06:59;6.60;91.20
1880;DHT22;49285;49.002;8.390;2023-03-01T11:09:25;6.60;91.00
1880;DHT22;49285;49.002;8.390;2023-03-01T11:11:59;6.70;91.00
1880;DHT22;49285;49.002;8.390;2023-03-01T11:14:38;6.70;90.80
1880;DHT22;49285;49.002;8.390;2023-03-01T11:17:29;6.80;90.70
1880;DHT22;49285;49.002;8.390;2023-03-01T11:22:54;6.90;90.60
1880;DHT22;49285;49.002;8.390;2023-03-01T11:25:25;7.00;90.60
1880;DHT22;49285;49.002;8.390;2023-03-01T11:27:52;7.10;90.30
1880;DHT22;49285;49.002;8.390;2023-03-01T11:30:23;7.10;90.20
1880;DHT22;49285;49.002;8.390;2023-03-01T11:35:35;7.20;90.10
1880;DHT22;49285;49.002;8.390;2023-03-01T11:40:52;7.30;90.30
1880;DHT22;49285;49.002;8.390;2023-03-01T11:43:36;7.40;90.00
1880;DHT22;49285;49.002;8.390;2023-03-01T11:51:55;7.60;90.00
1880;DHT22;49285;49.002;8.390;2023-03-01T12:10:28;8.30;87.80
1880;DHT22;49285;49.002;8.390;2023-03-01T12:13:05;8.60;89.20
1880;DHT22;49285;49.002;8.390;2023-03-01T12:19:04;12.30;85.50
1880;DHT22;49285;49.002;8.390;2023-03-01T12:24:31;15.60;73.30
1880;DHT22;49285;49.002;8.390;2023-03-01T12:33:09;18.90;59.10
1880;DHT22;49285;49.002;8.390;2023-03-01T12:35:54;19.80;58.20
1880;DHT22;49285;49.002;8.390;2023-03-01T12:38:50;20.40;54.30
1880;DHT22;49285;49.002;8.390;2023-03-01T12:49:41;22.70;47.60
1880;DHT22;49285;49.002;8.390;2023-03-01T12:52:27;22.90;45.30
1880;DHT22;49285;49.002;8.390;2023-03-01T12:54:56;22.80;43.50
1880;DHT22;49285;49.002;8.390;2023-03-01T12:57:45;23.20;43.90
1880;DHT22;49285;49.002;8.390;2023-03-01T13:03:00;23.70;42.10
1880;DHT22;49285;49.002;8.390;2023-03-01T13:08:11;23.70;40.10
1880;DHT22;49285;49.002;8.390;2023-03-01T13:10:48;23.90;39.70
1880;DHT22;49285;49.002;8.390;2023-03-01T13:13:21;24.00;39.10
1880;DHT22;49285;49.002;8.390;2023-03-01T13:15:48;24.10;38.90
1880;DHT22;49285;49.002;8.390;2023-03-01T13:20:52;24.10;38.30
1880;DHT22;49285;49.002;8.390;2023-03-01T13:26:09;23.80;36.90
1880;DHT22;49285;49.002;8.390;2023-03-01T13:28:50;23.10;37.50
1880;DHT22;49285;49.002;8.390;2023-03-01T13:33:45;21.40;37.90
1880;DHT22;49285;49.002;8.390;2023-03-01T13:39:28;19.60;39.40
1880;DHT22;49285;49.002;8.390;2023-03-01T13:41:56;19.40;40.20
1880;DHT22;49285;49.002;8.390;2023-03-01T13:49:55;20.00;40.70
1880;DHT22;49285;49.002;8.390;2023-03-01T13:57:56;20.40;40.00
1880;DHT22;49285;49.002;8.390;2023-03-01T14:00:36;20.50;40.00
1880;DHT22;49285;49.002;8.390;2023-03-01T14:03:16;20.60;39.90
1880;DHT22;49285;49.002;8.390;2023-03-01T14:06:03;20.70;39.60
1880;DHT22;49285;49.002;8.390;2023-03-01T14:08:32;20.70;39.40
1880;DHT22;49285;49.002;8.390;2023-03-01T14:19:16;20.30;39.70
1880;DHT22;49285;49.002;8.390;2023-03-01T14:21:43;20.10;39.50
1880;DHT22;49285;49.002;8.390;2023-03-01T14:24:21;19.90;40.00
1880;DHT22;49285;49.002;8.390;2023-03-01T14:26:48;19.30;40.10
1880;DHT22;49285;49.002;8.390;2023-03-01T14:29:25;19.00;40.60
1880;DHT22;49285;49.002;8.390;2023-03-01T14:31:51;18.70;41.00
1880;DHT22;49285;49.002;8.390;2023-03-01T14:34:22;18.50;41.20
1880;DHT22;49285;49.002;8.390;2023-03-01T14:36:48;18.30;41.30
1880;DHT22;49285;49.002;8.390;2023-03-01T14:39:19;18.00;41.50
1880;DHT22;49285;49.002;8.390;2023-03-01T14:41:45;17.60;41.90
1880;DHT22;49285;49.002;8.390;2023-03-01T14:44:23;17.30;42.20
1880;DHT22;49285;49.002;8.390;2023-03-01T14:46:53;17.10;42.60
1880;DHT22;49285;49.002;8.390;2023-03-01T14:49:23;16.80;42.80
1880;DHT22;49285;49.002;8.390;2023-03-01T14:52:22;16.40;43.20
1880;DHT22;49285;49.002;8.390;2023-03-01T14:54:51;16.00;43.70
1880;DHT22;49285;49.002;8.390;2023-03-01T14:57:24;15.80;44.20
1880;DHT22;49285;49.002;8.390;2023-03-01T14:59:57;15.60;44.70
1880;DHT22;49285;49.002;8.390;2023-03-01T15:02:26;15.40;44.80
1880;DHT22;49285;49.002;8.390;2023-03-01T15:04:56;15.20;45.20
1880;DHT22;49285;49.002;8.390;2023-03-01T15:07:27;14.90;45.40
1880;DHT22;49285;49.002;8.390;2023-03-01T15:09:54;14.70;45.70
1880;DHT22;49285;49.002;8.390;2023-03-01T15:12:35;14.60;46.10
1880;DHT22;49285;49.002;8.390;2023-03-01T15:15:18;14.40;46.30
1880;DHT22;49285;49.002;8.390;2023-03-01T15:17:44;14.20;46.60
1880;DHT22;49285;49.002;8.390;2023-03-01T15:20:18;14.10;46.70
1880;DHT22;49285;49.002;8.390;2023-03-01T15:22:47;14.00;47.10
1880;DHT22;49285;49.002;8.390;2023-03-01T15:25:19;13.90;47.20
1880;DHT22;49285;49.002;8.390;2023-03-01T15:27:49;13.80;47.60
1880;DHT22;49285;49.002;8.390;2023-03-01T15:30:22;13.70;47.70
1880;DHT22;49285;49.002;8.390;2023-03-01T15:32:48;13.60;48.00
1880;DHT22;49285;49.002;8.390;2023-03-01T15:35:43;13.50;48.20
1880;DHT22;49285;49.002;8.390;2023-03-01T15:38:32;13.50;48.50
1880;DHT22;49285;49.002;8.390;2023-03-01T15:41:01;13.40;48.60
1880;DHT22;49285;49.002;8.390;2023-03-01T15:43:45;13.40;48.70
1880;DHT22;49285;49.002;8.390;2023-03-01T15:46:29;13.30;48.80
1880;DHT22;49285;49.002;8.390;2023-03-01T15:48:59;13.20;49.00
1880;DHT22;49285;49.002;8.390;2023-03-01T15:51:34;13.10;49.10
1880;DHT22;49285;49.002;8.390;2023-03-01T15:54:03;13.00;49.90
1880;DHT22;49285;49.002;8.390;2023-03-01T15:56:29;13.00;49.50
1880;DHT22;49285;49.002;8.390;2023-03-01T15:59:01;13.00;49.60
1880;DHT22;49285;49.002;8.390;2023-03-01T16:01:30;12.90;49.60
1880;DHT22;49285;49.002;8.390;2023-03-01T16:03:56;12.80;49.60
1880;DHT22;49285;49.002;8.390;2023-03-01T16:06:23;12.70;49.70
1880;DHT22;49285;49.002;8.390;2023-03-01T16:08:49;12.60;49.90
1880;DHT22;49285;49.002;8.390;2023-03-01T16:11:17;12.50;49.90
1880;DHT22;49285;49.002;8.390;2023-03-01T16:13:44;12.40;50.00
1880;DHT22;49285;49.002;8.390;2023-03-01T16:16:11;12.30;50.50
1880;DHT22;49285;49.002;8.390;2023-03-01T16:18:45;12.20;50.70
1880;DHT22;49285;49.002;8.390;2023-03-01T16:21:19;12.10;50.90
1880;DHT22;49285;49.002;8.390;2023-03-01T16:23:45;11.90;51.00
1880;DHT22;49285;49.002;8.390;2023-03-01T16:26:11;11.90;51.10
1880;DHT22;49285;49.002;8.390;2023-03-01T16:28:38;11.80;51.10
1880;DHT22;49285;49.002;8.390;2023-03-01T16:31:04;11.80;51.40
1880;DHT22;49285;49.002;8.390;2023-03-01T16:33:31;11.70;51.50
1880;DHT22;49285;49.002;8.390;2023-03-01T16:35:56;11.70;51.60
1880;DHT22;49285;49.002;8.390;2023-03-01T16:38:23;11.60;51.70
1880;DHT22;49285;49.002;8.390;2023-03-01T16:40:50;11.50;52.00
1880;DHT22;49285;49.002;8.390;2023-03-01T16:43:16;11.40;52.30
1880;DHT22;49285;49.002;8.390;2023-03-01T16:45:42;11.40;52.30
1880;DHT22;49285;49.002;8.390;2023-03-01T16:48:10;11.30;52.30
1880;DHT22;49285;49.002;8.390;2023-03-01T16:50:36;11.30;52.50
1880;DHT22;49285;49.002;8.390;2023-03-01T16:53:01;11.30;52.60
1880;DHT22;49285;49.002;8.390;2023-03-01T16:55:27;11.20;52.70
1880;DHT22;49285;49.002;8.390;2023-03-01T16:57:53;11.10;52.80
1880;DHT22;49285;49.002;8.390;2023-03-01T17:00:19;11.10;52.90
1880;DHT22;49285;49.002;8.390;2023-03-01T17:02:45;11.10;53.00
1880;DHT22;49285;49.002;8.390;2023-03-01T17:05:10;11.00;53.10
1880;DHT22;49285;49.002;8.390;2023-03-01T17:07:37;11.00;53.20
1880;DHT22;49285;49.002;8.390;2023-03-01T17:10:05;10.90;53.40
1880;DHT22;49285;49.002;8.390;2023-03-01T17:12:33;10.90;53.40
1880;DHT22;49285;49.002;8.390;2023-03-01T17:14:59;10.80;53.50
1880;DHT22;49285;49.002;8.390;2023-03-01T17:17:25;10.80;53.70
1880;DHT22;49285;49.002;8.390;2023-03-01T17:19:50;10.70;53.70
1880;DHT22;49285;49.002;8.390;2023-03-01T17:22:16;10.70;53.90
1880;DHT22;49285;49.002;8.390;2023-03-01T17:24:43;10.60;54.00
1880;DHT22;49285;49.002;8.390;2023-03-01T17:27:09;10.60;54.00
1880;DHT22;49285;49.002;8.390;2023-03-01T17:29:36;10.60;54.10
1880;DHT22;49285;49.002;8.390;2023-03-01T17:32:03;10.50;54.20
1880;DHT22;49285;49.002;8.390;2023-03-01T17:34:31;10.50;54.30
1880;DHT22;49285;49.002;8.390;2023-03-01T17:36:57;10.50;54.40
1880;DHT22;49285;49.002;8.390;2023-03-01T17:39:22;10.40;54.40
1880;DHT22;49285;49.002;8.390;2023-03-01T17:41:53;10.40;54.50
1880;DHT22;49285;49.002;8.390;2023-03-01T17:44:18;10.40;54.60
1880;DHT22;49285;49.002;8.390;2023-03-01T17:46:44;10.30;54.70
1880;DHT22;49285;49.002;8.390;2023-03-01T17:49:09;10.30;54.70
1880;DHT22;49285;49.002;8.390;2023-03-01T17:51:36;10.30;54.80
1880;DHT22;49285;49.002;8.390;2023-03-01T17:54:02;10.30;55.00
1880;DHT22;49285;49.002;8.390;2023-03-01T17:56:28;10.20;55.10
1880;DHT22;49285;49.002;8.390;2023-03-01T17:58:54;10.20;55.20